sensor_id;sensor_type;location;lat;lon;timestamp;P1;durP1;ratioP1;P2;durP2;ratioP2
12412;SDS011;13877;18.896;-99.222;2022-09-30T00:00:36;8.98;;;3.58;;
12412;SDS011;13877;18.896;-99.222;2022-09-30T00:03:06;9.10;;;4.10;;
12412;SDS011;13877;18.896;-99.222;2022-09-30T00:05:33;6.47;;;4.40;;
12412;SDS011;13877;18.896;-99.222;2022-09-30T00:08:00;5.78;;;3.95;;
12412;SDS011;13877;18.896;-99.222;2022-09-30T00:10:27;12.55;;;3.95;;
12412;SDS011;13877;18.896;-99.222;2022-09-30T00:12:54;9.40;;;3.92;;
12412;SDS011;13877;18.896;-99.222;2022-09-30T00:15:22;12.30;;;4.70;;
12412;SDS011;13877;18.896;-99.222;2022-09-30T00:17:49;7.20;;;3.70;;
12412;SDS011;13877;18.896;-99.222;2022-09-30T00:20:16;10.18;;;4.55;;
12412;SDS011;13877;18.896;-99.222;2022-09-30T00:22:44;7.03;;;4.82;;
12412;SDS011;13877;18.896;-99.222;2022-09-30T00:25:11;16.30;;;5.53;;
12412;SDS011;13877;18.896;-99.222;2022-09-30T00:27:38;12.82;;;4.55;;
12412;SDS011;13877;18.896;-99.222;2022-09-30T00:30:05;15.80;;;4.45;;
12412;SDS011;13877;18.896;-99.222;2022-09-30T00:32:32;11.82;;;4.72;;
12412;SDS011;13877;18.896;-99.222;2022-09-30T00:34:59;13.70;;;4.13;;
12412;SDS011;13877;18.896;-99.222;2022-09-30T00:37:25;11.50;;;4.95;;
12412;SDS011;13877;18.896;-99.222;2022-09-30T00:39:53;12.02;;;4.18;;
12412;SDS011;13877;18.896;-99.222;2022-09-30T00:42:19;6.63;;;4.45;;
12412;SDS011;13877;18.896;-99.222;2022-09-30T00:44:48;14.20;;;5.45;;
12412;SDS011;13877;18.896;-99.222;2022-09-30T00:47:31;11.98;;;5.55;;
12412;SDS011;13877;18.896;-99.222;2022-09-30T00:50:20;12.27;;;7.05;;
12412;SDS011;13877;18.896;-99.222;2022-09-30T00:52:59;13.52;;;6.35;;
12412;SDS011;13877;18.896;-99.222;2022-09-30T00:55:39;12.25;;;6.88;;
12412;SDS011;13877;18.896;-99.222;2022-09-30T00:58:20;11.45;;;6.40;;
12412;SDS011;13877;18.896;-99.222;2022-09-30T01:00:56;12.68;;;6.45;;
12412;SDS011;13877;18.896;-99.222;2022-09-30T01:03:24;11.63;;;6.72;;
12412;SDS011;13877;18.896;-99.222;2022-09-30T01:05:54;9.93;;;6.05;;
12412;SDS011;13877;18.896;-99.222;2022-09-30T01:08:21;14.43;;;5.93;;
12412;SDS011;13877;18.896;-99.222;2022-09-30T01:10:49;11.02;;;5.75;;
12412;SDS011;13877;18.896;-99.222;2022-09-30T01:13:16;16.63;;;7.93;;
12412;SDS011;13877;18.896;-99.222;2022-09-30T01:18:29;12.70;;;5.40;;
12412;SDS011;13877;18.896;-99.222;2022-09-30T01:21:20;11.52;;;5.55;;
12412;SDS011;13877;18.896;-99.222;2022-09-30T01:24:25;11.75;;;5.18;;
12412;SDS011;13877;18.896;-99.222;2022-09-30T01:27:29;14.27;;;5.15;;
12412;SDS011;13877;18.896;-99.222;2022-09-30T01:41:00;8.85;;;6.00;;
12412;SDS011;13877;18.896;-99.222;2022-09-30T01:44:00;10.68;;;5.45;;
12412;SDS011;13877;18.896;-99.222;2022-09-30T01:46:39;9.38;;;5.47;;
12412;SDS011;13877;18.896;-99.222;2022-09-30T01:49:18;10.15;;;5.53;;
12412;SDS011;13877;18.896;-99.222;2022-09-30T01:55:06;9.13;;;5.28;;
12412;SDS011;13877;18.896;-99.222;2022-09-30T01:57:55;16.25;;;6.60;;
12412;SDS011;13877;18.896;-99.222;2022-09-30T02:00:27;12.90;;;5.63;;
12412;SDS011;13877;18.896;-99.222;2022-09-30T02:02:57;12.35;;;5.85;;
12412;SDS011;13877;18.896;-99.222;2022-09-30T02:05:35;11.95;;;6.82;;
12412;SDS011;13877;18.896;-99.222;2022-09-30T02:08:11;13.38;;;6.45;;
12412;SDS011;13877;18.896;-99.222;2022-09-30T02:10:44;10.93;;;6.10;;
12412;SDS011;13877;18.896;-99.222;2022-09-30T02:13:22;76.80;;;7.15;;
12412;SDS011;13877;18.896;-99.222;2022-09-30T02:16:16;10.07;;;6.68;;
12412;SDS011;13877;18.896;-99.222;2022-09-30T02:18:49;9.73;;;6.47;;
12412;SDS011;13877;18.896;-99.222;2022-09-30T02:21:22;13.80;;;7.63;;
12412;SDS011;13877;18.896;-99.222;2022-09-30T02:23:56;19.05;;;7.93;;
12412;SDS011;13877;18.896;-99.222;2022-09-30T02:26:31;19.90;;;7.97;;
12412;SDS011;13877;18.896;-99.222;2022-09-30T02:29:04;18.67;;;9.32;;
12412;SDS011;13877;18.896;-99.222;2022-09-30T02:31:36;18.48;;;8.88;;
12412;SDS011;13877;18.896;-99.222;2022-09-30T02:34:08;25.33;;;8.52;;
12412;SDS011;13877;18.896;-99.222;2022-09-30T02:36:53;14.45;;;8.20;;
12412;SDS011;13877;18.896;-99.222;2022-09-30T02:39:24;20.02;;;8.77;;
12412;SDS011;13877;18.896;-99.222;2022-09-30T02:41:54;15.50;;;8.60;;
12412;SDS011;13877;18.896;-99.222;2022-09-30T02:44:27;14.18;;;8.18;;
12412;SDS011;13877;18.896;-99.222;2022-09-30T02:47:14;13.90;;;7.93;;
12412;SDS011;13877;18.896;-99.222;2022-09-30T02:50:11;14.32;;;7.45;;
12412;SDS011;13877;18.896;-99.222;2022-09-30T02:58:25;12.07;;;7.50;;
12412;SDS011;13877;18.896;-99.222;2022-09-30T03:00:53;15.55;;;7.25;;
12412;SDS011;13877;18.896;-99.222;2022-09-30T03:03:24;12.65;;;5.13;;
12412;SDS011;13877;18.896;-99.222;2022-09-30T03:05:54;18.17;;;4.00;;
12412;SDS011;13877;18.896;-99.222;2022-09-30T03:08:21;13.18;;;3.03;;
12412;SDS011;13877;18.896;-99.222;2022-09-30T03:10:49;11.27;;;3.42;;
12412;SDS011;13877;18.896;-99.222;2022-09-30T03:24:35;14.80;;;3.65;;
12412;SDS011;13877;18.896;-99.222;2022-09-30T03:27:30;19.33;;;3.70;;
12412;SDS011;13877;18.896;-99.222;2022-09-30T03:30:05;12.40;;;3.67;;
12412;SDS011;13877;18.896;-99.222;2022-09-30T03:32:43;13.25;;;6.07;;
12412;SDS011;13877;18.896;-99.222;2022-09-30T03:41:03;20.50;;;10.05;;
12412;SDS011;13877;18.896;-99.222;2022-09-30T03:48:52;16.27;;;5.47;;
12412;SDS011;13877;18.896;-99.222;2022-09-30T03:51:23;14.20;;;4.30;;
12412;SDS011;13877;18.896;-99.222;2022-09-30T03:53:51;13.88;;;4.63;;
12412;SDS011;13877;18.896;-99.222;2022-09-30T03:56:25;15.95;;;4.35;;
12412;SDS011;13877;18.896;-99.222;2022-09-30T03:58:54;12.05;;;4.20;;
12412;SDS011;13877;18.896;-99.222;2022-09-30T04:01:22;13.55;;;4.10;;
12412;SDS011;13877;18.896;-99.222;2022-09-30T04:03:50;10.52;;;3.97;;
12412;SDS011;13877;18.896;-99.222;2022-09-30T04:06:19;9.90;;;3.97;;
12412;SDS011;13877;18.896;-99.222;2022-09-30T04:08:47;15.60;;;4.82;;
12412;SDS011;13877;18.896;-99.222;2022-09-30T04:11:15;9.15;;;4.25;;
12412;SDS011;13877;18.896;-99.222;2022-09-30T04:13:42;9.50;;;4.90;;
12412;SDS011;13877;18.896;-99.222;2022-09-30T04:16:09;20.17;;;5.20;;
12412;SDS011;13877;18.896;-99.222;2022-09-30T04:18:36;14.75;;;5.38;;
12412;SDS011;13877;18.896;-99.222;2022-09-30T04:21:04;11.90;;;5.20;;
12412;SDS011;13877;18.896;-99.222;2022-09-30T04:23:35;14.65;;;5.35;;
12412;SDS011;13877;18.896;-99.222;2022-09-30T04:28:31;20.35;;;5.70;;
12412;SDS011;13877;18.896;-99.222;2022-09-30T04:30:59;19.77;;;5.97;;
12412;SDS011;13877;18.896;-99.222;2022-09-30T04:33:27;16.15;;;5.88;;
12412;SDS011;13877;18.896;-99.222;2022-09-30T04:35:54;11.43;;;5.28;;
12412;SDS011;13877;18.896;-99.222;2022-09-30T04:38:22;13.18;;;5.65;;
12412;SDS011;13877;18.896;-99.222;2022-09-30T04:40:51;12.68;;;4.60;;
12412;SDS011;13877;18.896;-99.222;2022-09-30T04:43:23;12.77;;;4.57;;
12412;SDS011;13877;18.896;-99.222;2022-09-30T04:45:50;17.45;;;4.70;;
12412;SDS011;13877;18.896;-99.222;2022-09-30T04:48:18;12.63;;;4.22;;
12412;SDS011;13877;18.896;-99.222;2022-09-30T04:50:47;12.85;;;4.32;;
12412;SDS011;13877;18.896;-99.222;2022-09-30T04:53:14;9.88;;;4.18;;
12412;SDS011;13877;18.896;-99.222;2022-09-30T04:55:43;10.63;;;3.88;;
12412;SDS011;13877;18.896;-99.222;2022-09-30T04:58:11;15.90;;;4.15;;
12412;SDS011;13877;18.896;-99.222;2022-09-30T05:00:38;15.98;;;4.88;;
12412;SDS011;13877;18.896;-99.222;2022-09-30T05:03:05;11.65;;;4.75;;
12412;SDS011;13877;18.896;-99.222;2022-09-30T05:05:32;17.00;;;4.50;;
12412;SDS011;13877;18.896;-99.222;2022-09-30T05:08:00;9.77;;;4.45;;
12412;SDS011;13877;18.896;-99.222;2022-09-30T05:10:28;21.13;;;4.47;;
12412;SDS011;13877;18.896;-99.222;2022-09-30T05:12:55;12.68;;;4.72;;
12412;SDS011;13877;18.896;-99.222;2022-09-30T05:15:25;9.38;;;3.92;;
12412;SDS011;13877;18.896;-99.222;2022-09-30T05:17:52;13.30;;;4.45;;
12412;SDS011;13877;18.896;-99.222;2022-09-30T05:20:19;18.90;;;4.53;;
12412;SDS011;13877;18.896;-99.222;2022-09-30T05:22:46;15.85;;;4.50;;
12412;SDS011;13877;18.896;-99.222;2022-09-30T05:25:18;10.10;;;4.93;;
12412;SDS011;13877;18.896;-99.222;2022-09-30T05:27:47;17.38;;;5.45;;
12412;SDS011;13877;18.896;-99.222;2022-09-30T05:30:15;12.07;;;5.05;;
12412;SDS011;13877;18.896;-99.222;2022-09-30T05:32:42;16.95;;;4.65;;
12412;SDS011;13877;18.896;-99.222;2022-09-30T05:35:09;11.07;;;5.47;;
12412;SDS011;13877;18.896;-99.222;2022-09-30T05:37:36;9.70;;;5.18;;
12412;SDS011;13877;18.896;-99.222;2022-09-30T05:40:04;10.55;;;5.07;;
12412;SDS011;13877;18.896;-99.222;2022-09-30T05:42:32;15.55;;;4.78;;
12412;SDS011;13877;18.896;-99.222;2022-09-30T05:45:02;13.40;;;5.13;;
12412;SDS011;13877;18.896;-99.222;2022-09-30T05:47:32;12.50;;;4.82;;
12412;SDS011;13877;18.896;-99.222;2022-09-30T05:49:59;12.63;;;5.20;;
12412;SDS011;13877;18.896;-99.222;2022-09-30T05:52:26;11.90;;;5.28;;
12412;SDS011;13877;18.896;-99.222;2022-09-30T05:54:54;12.02;;;4.68;;
12412;SDS011;13877;18.896;-99.222;2022-09-30T05:57:24;13.07;;;5.53;;
12412;SDS011;13877;18.896;-99.222;2022-09-30T05:59:50;11.52;;;4.88;;
12412;SDS011;13877;18.896;-99.222;2022-09-30T06:02:17;13.70;;;4.20;;
12412;SDS011;13877;18.896;-99.222;2022-09-30T06:04:44;13.07;;;5.15;;
12412;SDS011;13877;18.896;-99.222;2022-09-30T06:07:11;15.18;;;4.45;;
12412;SDS011;13877;18.896;-99.222;2022-09-30T06:09:38;17.15;;;4.72;;
12412;SDS011;13877;18.896;-99.222;2022-09-30T06:12:05;22.60;;;4.80;;
12412;SDS011;13877;18.896;-99.222;2022-09-30T06:14:32;9.00;;;4.70;;
12412;SDS011;13877;18.896;-99.222;2022-09-30T06:17:00;15.07;;;4.60;;
12412;SDS011;13877;18.896;-99.222;2022-09-30T06:19:27;13.43;;;4.80;;
12412;SDS011;13877;18.896;-99.222;2022-09-30T06:21:56;12.35;;;5.13;;
12412;SDS011;13877;18.896;-99.222;2022-09-30T06:24:23;13.63;;;5.40;;
12412;SDS011;13877;18.896;-99.222;2022-09-30T06:26:50;12.07;;;5.85;;
12412;SDS011;13877;18.896;-99.222;2022-09-30T06:29:17;13.30;;;5.53;;
12412;SDS011;13877;18.896;-99.222;2022-09-30T06:31:44;9.15;;;5.30;;
12412;SDS011;13877;18.896;-99.222;2022-09-30T06:34:11;18.92;;;5.93;;
12412;SDS011;13877;18.896;-99.222;2022-09-30T06:36:38;10.20;;;6.25;;
12412;SDS011;13877;18.896;-99.222;2022-09-30T06:39:05;11.05;;;6.00;;
12412;SDS011;13877;18.896;-99.222;2022-09-30T06:41:32;12.02;;;5.90;;
12412;SDS011;13877;18.896;-99.222;2022-09-30T06:44:02;10.60;;;6.03;;
12412;SDS011;13877;18.896;-99.222;2022-09-30T06:46:29;15.68;;;6.50;;
12412;SDS011;13877;18.896;-99.222;2022-09-30T06:48:56;14.40;;;6.57;;
12412;SDS011;13877;18.896;-99.222;2022-09-30T06:51:23;12.88;;;6.38;;
12412;SDS011;13877;18.896;-99.222;2022-09-30T06:53:51;10.70;;;6.30;;
12412;SDS011;13877;18.896;-99.222;2022-09-30T06:56:18;14.40;;;7.15;;
12412;SDS011;13877;18.896;-99.222;2022-09-30T06:58:46;11.70;;;6.32;;
12412;SDS011;13877;18.896;-99.222;2022-09-30T07:01:13;14.10;;;6.25;;
12412;SDS011;13877;18.896;-99.222;2022-09-30T07:03:41;19.50;;;6.78;;
12412;SDS011;13877;18.896;-99.222;2022-09-30T07:06:10;13.45;;;6.30;;
12412;SDS011;13877;18.896;-99.222;2022-09-30T07:08:39;9.88;;;6.07;;
12412;SDS011;13877;18.896;-99.222;2022-09-30T07:11:08;15.30;;;6.22;;
12412;SDS011;13877;18.896;-99.222;2022-09-30T07:13:42;10.77;;;5.65;;
12412;SDS011;13877;18.896;-99.222;2022-09-30T07:16:11;13.40;;;5.57;;
12412;SDS011;13877;18.896;-99.222;2022-09-30T07:18:39;19.52;;;5.90;;
12412;SDS011;13877;18.896;-99.222;2022-09-30T07:21:11;17.13;;;6.35;;
12412;SDS011;13877;18.896;-99.222;2022-09-30T07:23:41;11.50;;;6.03;;
12412;SDS011;13877;18.896;-99.222;2022-09-30T07:26:16;10.40;;;6.15;;
12412;SDS011;13877;18.896;-99.222;2022-09-30T07:28:48;10.30;;;6.00;;
12412;SDS011;13877;18.896;-99.222;2022-09-30T07:31:17;17.77;;;6.25;;
12412;SDS011;13877;18.896;-99.222;2022-09-30T07:33:46;10.70;;;6.43;;
12412;SDS011;13877;18.896;-99.222;2022-09-30T07:36:16;16.10;;;5.78;;
12412;SDS011;13877;18.896;-99.222;2022-09-30T07:38:45;9.90;;;5.50;;
12412;SDS011;13877;18.896;-99.222;2022-09-30T07:43:46;16.95;;;5.28;;
12412;SDS011;13877;18.896;-99.222;2022-09-30T07:46:17;10.40;;;5.10;;
12412;SDS011;13877;18.896;-99.222;2022-09-30T07:48:50;12.48;;;5.50;;
12412;SDS011;13877;18.896;-99.222;2022-09-30T07:51:24;18.42;;;5.05;;
12412;SDS011;13877;18.896;-99.222;2022-09-30T07:53:57;10.05;;;5.63;;
12412;SDS011;13877;18.896;-99.222;2022-09-30T07:56:26;17.20;;;5.33;;
12412;SDS011;13877;18.896;-99.222;2022-09-30T07:58:55;11.15;;;5.38;;
12412;SDS011;13877;18.896;-99.222;2022-09-30T08:01:25;13.93;;;5.37;;
12412;SDS011;13877;18.896;-99.222;2022-09-30T08:03:54;9.57;;;4.63;;
12412;SDS011;13877;18.896;-99.222;2022-09-30T08:06:22;9.00;;;4.68;;
12412;SDS011;13877;18.896;-99.222;2022-09-30T08:08:51;12.18;;;5.07;;
12412;SDS011;13877;18.896;-99.222;2022-09-30T08:11:20;7.55;;;4.90;;
12412;SDS011;13877;18.896;-99.222;2022-09-30T08:13:53;8.43;;;5.15;;
12412;SDS011;13877;18.896;-99.222;2022-09-30T08:16:22;9.65;;;5.13;;
12412;SDS011;13877;18.896;-99.222;2022-09-30T08:18:56;13.73;;;5.40;;
12412;SDS011;13877;18.896;-99.222;2022-09-30T08:21:25;20.48;;;5.25;;
12412;SDS011;13877;18.896;-99.222;2022-09-30T08:23:53;10.70;;;5.03;;
12412;SDS011;13877;18.896;-99.222;2022-09-30T08:26:20;9.60;;;5.40;;
12412;SDS011;13877;18.896;-99.222;2022-09-30T08:28:47;13.70;;;5.72;;
12412;SDS011;13877;18.896;-99.222;2022-09-30T08:31:15;16.20;;;6.13;;
12412;SDS011;13877;18.896;-99.222;2022-09-30T08:33:43;13.00;;;5.03;;
12412;SDS011;13877;18.896;-99.222;2022-09-30T08:36:14;10.30;;;5.65;;
12412;SDS011;13877;18.896;-99.222;2022-09-30T08:38:43;13.32;;;5.97;;
12412;SDS011;13877;18.896;-99.222;2022-09-30T08:44:24;14.68;;;5.63;;
12412;SDS011;13877;18.896;-99.222;2022-09-30T08:47:16;11.85;;;5.28;;
12412;SDS011;13877;18.896;-99.222;2022-09-30T08:52:50;14.38;;;6.30;;
12412;SDS011;13877;18.896;-99.222;2022-09-30T08:55:23;12.13;;;5.57;;
12412;SDS011;13877;18.896;-99.222;2022-09-30T08:57:52;7.32;;;5.18;;
12412;SDS011;13877;18.896;-99.222;2022-09-30T09:00:21;9.30;;;5.60;;
12412;SDS011;13877;18.896;-99.222;2022-09-30T09:08:00;10.65;;;5.53;;
12412;SDS011;13877;18.896;-99.222;2022-09-30T09:10:44;13.88;;;6.03;;
12412;SDS011;13877;18.896;-99.222;2022-09-30T09:15:48;11.45;;;5.65;;
12412;SDS011;13877;18.896;-99.222;2022-09-30T09:18:40;18.20;;;6.50;;
12412;SDS011;13877;18.896;-99.222;2022-09-30T09:24:14;10.00;;;5.55;;
12412;SDS011;13877;18.896;-99.222;2022-09-30T09:26:46;12.95;;;5.45;;
12412;SDS011;13877;18.896;-99.222;2022-09-30T09:31:52;11.57;;;5.75;;
12412;SDS011;13877;18.896;-99.222;2022-09-30T09:34:21;14.48;;;6.10;;
12412;SDS011;13877;18.896;-99.222;2022-09-30T09:36:59;12.40;;;6.43;;
12412;SDS011;13877;18.896;-99.222;2022-09-30T09:44:59;12.30;;;5.82;;
12412;SDS011;13877;18.896;-99.222;2022-09-30T09:47:30;12.57;;;6.13;;
12412;SDS011;13877;18.896;-99.222;2022-09-30T09:49:58;16.02;;;6.18;;
12412;SDS011;13877;18.896;-99.222;2022-09-30T09:55:30;11.85;;;5.90;;
12412;SDS011;13877;18.896;-99.222;2022-09-30T09:58:08;11.45;;;5.60;;
12412;SDS011;13877;18.896;-99.222;2022-09-30T10:00:39;10.75;;;5.65;;
12412;SDS011;13877;18.896;-99.222;2022-09-30T10:03:13;14.55;;;5.85;;
12412;SDS011;13877;18.896;-99.222;2022-09-30T10:08:52;12.25;;;5.28;;
12412;SDS011;13877;18.896;-99.222;2022-09-30T10:11:22;13.60;;;4.97;;
12412;SDS011;13877;18.896;-99.222;2022-09-30T10:13:58;9.68;;;5.53;;
12412;SDS011;13877;18.896;-99.222;2022-09-30T10:16:30;11.90;;;6.00;;
12412;SDS011;13877;18.896;-99.222;2022-09-30T10:19:02;9.10;;;5.30;;
12412;SDS011;13877;18.896;-99.222;2022-09-30T10:21:42;8.35;;;4.88;;
12412;SDS011;13877;18.896;-99.222;2022-09-30T10:24:27;9.23;;;5.47;;
12412;SDS011;13877;18.896;-99.222;2022-09-30T10:26:55;11.65;;;5.22;;
12412;SDS011;13877;18.896;-99.222;2022-09-30T10:29:26;13.25;;;5.25;;
12412;SDS011;13877;18.896;-99.222;2022-09-30T10:31:54;11.95;;;5.38;;
12412;SDS011;13877;18.896;-99.222;2022-09-30T10:34:35;11.52;;;5.40;;
12412;SDS011;13877;18.896;-99.222;2022-09-30T10:37:15;15.60;;;5.25;;
12412;SDS011;13877;18.896;-99.222;2022-09-30T10:39:51;10.30;;;5.88;;
12412;SDS011;13877;18.896;-99.222;2022-09-30T10:42:24;10.38;;;5.75;;
12412;SDS011;13877;18.896;-99.222;2022-09-30T10:44:57;14.85;;;5.80;;
12412;SDS011;13877;18.896;-99.222;2022-09-30T10:47:28;9.18;;;6.07;;
12412;SDS011;13877;18.896;-99.222;2022-09-30T10:49:58;16.50;;;5.93;;
12412;SDS011;13877;18.896;-99.222;2022-09-30T10:52:54;10.95;;;6.38;;
12412;SDS011;13877;18.896;-99.222;2022-09-30T10:57:47;11.02;;;6.30;;
12412;SDS011;13877;18.896;-99.222;2022-09-30T11:00:19;17.05;;;6.93;;
12412;SDS011;13877;18.896;-99.222;2022-09-30T11:02:54;14.25;;;6.85;;
12412;SDS011;13877;18.896;-99.222;2022-09-30T11:05:39;9.05;;;6.50;;
12412;SDS011;13877;18.896;-99.222;2022-09-30T11:08:23;12.82;;;6.70;;
12412;SDS011;13877;18.896;-99.222;2022-09-30T11:11:01;14.27;;;7.03;;
12412;SDS011;13877;18.896;-99.222;2022-09-30T11:13:39;13.65;;;6.50;;
12412;SDS011;13877;18.896;-99.222;2022-09-30T11:16:16;16.48;;;6.88;;
12412;SDS011;13877;18.896;-99.222;2022-09-30T11:19:13;9.18;;;6.05;;
12412;SDS011;13877;18.896;-99.222;2022-09-30T11:24:48;11.25;;;6.60;;
12412;SDS011;13877;18.896;-99.222;2022-09-30T11:41:19;10.85;;;6.70;;
12412;SDS011;13877;18.896;-99.222;2022-09-30T11:43:51;18.67;;;7.50;;
12412;SDS011;13877;18.896;-99.222;2022-09-30T11:46:40;11.15;;;6.55;;
12412;SDS011;13877;18.896;-99.222;2022-09-30T11:49:39;14.80;;;7.47;;
12412;SDS011;13877;18.896;-99.222;2022-09-30T11:58:10;22.95;;;8.52;;
12412;SDS011;13877;18.896;-99.222;2022-09-30T12:00:41;19.35;;;8.00;;
12412;SDS011;13877;18.896;-99.222;2022-09-30T12:03:17;11.88;;;8.40;;
12412;SDS011;13877;18.896;-99.222;2022-09-30T12:06:18;17.70;;;8.18;;
12412;SDS011;13877;18.896;-99.222;2022-09-30T12:09:02;29.63;;;10.02;;
12412;SDS011;13877;18.896;-99.222;2022-09-30T12:11:55;21.27;;;10.45;;
12412;SDS011;13877;18.896;-99.222;2022-09-30T12:14:48;23.38;;;10.10;;
12412;SDS011;13877;18.896;-99.222;2022-09-30T12:25:59;27.60;;;10.45;;
12412;SDS011;13877;18.896;-99.222;2022-09-30T12:28:30;30.33;;;10.25;;
12412;SDS011;13877;18.896;-99.222;2022-09-30T12:34:17;25.30;;;11.18;;
12412;SDS011;13877;18.896;-99.222;2022-09-30T12:39:44;19.08;;;10.52;;
12412;SDS011;13877;18.896;-99.222;2022-09-30T12:42:27;22.67;;;9.10;;
12412;SDS011;13877;18.896;-99.222;2022-09-30T12:47:47;24.27;;;9.43;;
12412;SDS011;13877;18.896;-99.222;2022-09-30T12:50:18;17.27;;;9.00;;
12412;SDS011;13877;18.896;-99.222;2022-09-30T12:52:47;17.05;;;9.63;;
12412;SDS011;13877;18.896;-99.222;2022-09-30T12:55:19;21.08;;;10.00;;
12412;SDS011;13877;18.896;-99.222;2022-09-30T12:57:53;14.13;;;8.48;;
12412;SDS011;13877;18.896;-99.222;2022-09-30T13:00:22;17.92;;;9.48;;
12412;SDS011;13877;18.896;-99.222;2022-09-30T13:02:53;20.23;;;8.63;;
12412;SDS011;13877;18.896;-99.222;2022-09-30T13:15:43;19.60;;;7.50;;
12412;SDS011;13877;18.896;-99.222;2022-09-30T13:20:53;15.95;;;7.32;;
12412;SDS011;13877;18.896;-99.222;2022-09-30T13:23:37;20.55;;;7.97;;
12412;SDS011;13877;18.896;-99.222;2022-09-30T13:26:31;15.55;;;8.05;;
12412;SDS011;13877;18.896;-99.222;2022-09-30T13:31:27;14.23;;;7.43;;
12412;SDS011;13877;18.896;-99.222;2022-09-30T13:37:22;29.33;;;7.82;;
12412;SDS011;13877;18.896;-99.222;2022-09-30T13:47:48;18.55;;;6.10;;
12412;SDS011;13877;18.896;-99.222;2022-09-30T13:50:25;9.65;;;4.70;;
12412;SDS011;13877;18.896;-99.222;2022-09-30T13:53:01;12.52;;;5.45;;
12412;SDS011;13877;18.896;-99.222;2022-09-30T13:55:41;16.35;;;5.93;;
12412;SDS011;13877;18.896;-99.222;2022-09-30T14:01:13;25.52;;;5.53;;
12412;SDS011;13877;18.896;-99.222;2022-09-30T14:07:07;12.57;;;4.65;;
12412;SDS011;13877;18.896;-99.222;2022-09-30T14:23:36;14.60;;;5.10;;
12412;SDS011;13877;18.896;-99.222;2022-09-30T14:29:24;7.32;;;3.60;;
12412;SDS011;13877;18.896;-99.222;2022-09-30T14:32:34;17.17;;;3.65;;
12412;SDS011;13877;18.896;-99.222;2022-09-30T14:35:05;14.18;;;3.60;;
12412;SDS011;13877;18.896;-99.222;2022-09-30T14:37:47;8.85;;;4.10;;
12412;SDS011;13877;18.896;-99.222;2022-09-30T14:40:22;6.22;;;3.20;;
12412;SDS011;13877;18.896;-99.222;2022-09-30T14:42:56;4.32;;;2.97;;
12412;SDS011;13877;18.896;-99.222;2022-09-30T14:45:39;6.25;;;3.22;;
12412;SDS011;13877;18.896;-99.222;2022-09-30T14:48:09;6.27;;;3.10;;
12412;SDS011;13877;18.896;-99.222;2022-09-30T14:50:44;8.80;;;3.20;;
12412;SDS011;13877;18.896;-99.222;2022-09-30T14:53:25;9.30;;;3.25;;
12412;SDS011;13877;18.896;-99.222;2022-09-30T14:55:54;10.07;;;3.83;;
12412;SDS011;13877;18.896;-99.222;2022-09-30T15:03:28;8.60;;;3.72;;
12412;SDS011;13877;18.896;-99.222;2022-09-30T15:05:57;5.38;;;3.55;;
12412;SDS011;13877;18.896;-99.222;2022-09-30T15:08:25;10.80;;;3.92;;
12412;SDS011;13877;18.896;-99.222;2022-09-30T15:10:53;6.35;;;3.80;;
12412;SDS011;13877;18.896;-99.222;2022-09-30T15:13:22;6.68;;;3.30;;
12412;SDS011;13877;18.896;-99.222;2022-09-30T15:15:53;8.48;;;3.30;;
12412;SDS011;13877;18.896;-99.222;2022-09-30T15:18:30;5.25;;;3.33;;
12412;SDS011;13877;18.896;-99.222;2022-09-30T15:21:12;6.32;;;3.00;;
12412;SDS011;13877;18.896;-99.222;2022-09-30T15:23:42;7.15;;;3.72;;
12412;SDS011;13877;18.896;-99.222;2022-09-30T15:26:14;16.17;;;3.92;;
12412;SDS011;13877;18.896;-99.222;2022-09-30T15:28:41;9.52;;;3.15;;
12412;SDS011;13877;18.896;-99.222;2022-09-30T15:31:29;7.82;;;3.55;;
12412;SDS011;13877;18.896;-99.222;2022-09-30T15:34:03;7.53;;;4.03;;
12412;SDS011;13877;18.896;-99.222;2022-09-30T15:36:39;10.23;;;3.95;;
12412;SDS011;13877;18.896;-99.222;2022-09-30T15:39:15;9.15;;;3.30;;
12412;SDS011;13877;18.896;-99.222;2022-09-30T15:41:46;9.40;;;3.00;;
12412;SDS011;13877;18.896;-99.222;2022-09-30T15:44:15;15.60;;;4.30;;
12412;SDS011;13877;18.896;-99.222;2022-09-30T15:47:03;11.35;;;4.18;;
12412;SDS011;13877;18.896;-99.222;2022-09-30T15:49:33;12.38;;;3.10;;
12412;SDS011;13877;18.896;-99.222;2022-09-30T15:52:28;15.77;;;3.90;;
12412;SDS011;13877;18.896;-99.222;2022-09-30T15:55:30;14.98;;;3.63;;
12412;SDS011;13877;18.896;-99.222;2022-09-30T15:57:57;7.72;;;3.15;;
12412;SDS011;13877;18.896;-99.222;2022-09-30T16:03:13;11.88;;;3.55;;
12412;SDS011;13877;18.896;-99.222;2022-09-30T16:06:15;12.50;;;3.28;;
12412;SDS011;13877;18.896;-99.222;2022-09-30T16:08:49;7.95;;;4.25;;
12412;SDS011;13877;18.896;-99.222;2022-09-30T16:11:25;6.38;;;3.83;;
12412;SDS011;13877;18.896;-99.222;2022-09-30T16:13:59;7.90;;;4.43;;
12412;SDS011;13877;18.896;-99.222;2022-09-30T16:16:32;11.05;;;4.50;;
12412;SDS011;13877;18.896;-99.222;2022-09-30T16:19:01;14.40;;;4.60;;
12412;SDS011;13877;18.896;-99.222;2022-09-30T16:21:39;16.13;;;4.55;;
12412;SDS011;13877;18.896;-99.222;2022-09-30T16:26:48;15.65;;;5.88;;
12412;SDS011;13877;18.896;-99.222;2022-09-30T16:29:16;12.02;;;5.55;;
12412;SDS011;13877;18.896;-99.222;2022-09-30T16:31:47;14.07;;;6.18;;
12412;SDS011;13877;18.896;-99.222;2022-09-30T16:34:18;17.55;;;6.93;;
12412;SDS011;13877;18.896;-99.222;2022-09-30T16:36:52;13.98;;;5.80;;
12412;SDS011;13877;18.896;-99.222;2022-09-30T16:39:20;10.45;;;6.93;;
12412;SDS011;13877;18.896;-99.222;2022-09-30T16:41:48;11.85;;;7.15;;
12412;SDS011;13877;18.896;-99.222;2022-09-30T16:44:15;11.35;;;6.97;;
12412;SDS011;13877;18.896;-99.222;2022-09-30T16:46:43;18.08;;;7.40;;
12412;SDS011;13877;18.896;-99.222;2022-09-30T16:49:13;16.10;;;7.95;;
12412;SDS011;13877;18.896;-99.222;2022-09-30T16:51:41;11.13;;;7.20;;
12412;SDS011;13877;18.896;-99.222;2022-09-30T16:54:09;25.83;;;8.40;;
12412;SDS011;13877;18.896;-99.222;2022-09-30T16:56:37;16.17;;;8.10;;
12412;SDS011;13877;18.896;-99.222;2022-09-30T16:59:14;15.25;;;8.80;;
12412;SDS011;13877;18.896;-99.222;2022-09-30T17:01:43;15.00;;;8.30;;
12412;SDS011;13877;18.896;-99.222;2022-09-30T17:04:10;13.05;;;8.55;;
12412;SDS011;13877;18.896;-99.222;2022-09-30T17:06:37;17.20;;;7.43;;
12412;SDS011;13877;18.896;-99.222;2022-09-30T17:09:04;20.48;;;9.57;;
12412;SDS011;13877;18.896;-99.222;2022-09-30T17:11:32;18.38;;;9.60;;
12412;SDS011;13877;18.896;-99.222;2022-09-30T17:14:00;15.32;;;10.18;;
12412;SDS011;13877;18.896;-99.222;2022-09-30T17:16:29;17.10;;;9.57;;
12412;SDS011;13877;18.896;-99.222;2022-09-30T17:18:56;22.13;;;9.82;;
12412;SDS011;13877;18.896;-99.222;2022-09-30T17:21:24;17.33;;;9.43;;
12412;SDS011;13877;18.896;-99.222;2022-09-30T17:23:55;19.73;;;9.40;;
12412;SDS011;13877;18.896;-99.222;2022-09-30T17:26:23;19.05;;;8.23;;
12412;SDS011;13877;18.896;-99.222;2022-09-30T17:28:50;15.63;;;10.05;;
12412;SDS011;13877;18.896;-99.222;2022-09-30T17:31:17;19.77;;;8.48;;
12412;SDS011;13877;18.896;-99.222;2022-09-30T17:33:44;22.80;;;10.25;;
12412;SDS011;13877;18.896;-99.222;2022-09-30T17:36:11;18.73;;;10.35;;
12412;SDS011;13877;18.896;-99.222;2022-09-30T17:38:39;13.30;;;8.57;;
12412;SDS011;13877;18.896;-99.222;2022-09-30T17:41:08;15.57;;;8.55;;
12412;SDS011;13877;18.896;-99.222;2022-09-30T17:43:56;12.65;;;7.70;;
12412;SDS011;13877;18.896;-99.222;2022-09-30T17:46:27;25.80;;;7.80;;